createdAt,value
2022-12-05T00:02:45.746Z,3.67
2022-12-05T00:05:50.739Z,3.87
2022-12-05T00:08:55.768Z,3.60
2022-12-05T00:12:00.516Z,3.83
2022-12-05T00:15:09.633Z,3.90
2022-12-05T00:18:14.368Z,3.73
2022-12-05T00:21:21.581Z,3.40
2022-12-05T00:24:26.374Z,3.97
2022-12-05T00:27:31.016Z,3.43
2022-12-05T00:30:37.105Z,3.73
2022-12-05T00:33:42.009Z,3.27
2022-12-05T00:36:46.645Z,3.47
2022-12-05T00:39:51.413Z,3.20
2022-12-05T00:42:56.124Z,3.30
2022-12-05T00:46:04.545Z,3.90
2022-12-05T00:49:10.177Z,3.80
2022-12-05T00:52:14.813Z,3.60
2022-12-05T00:55:19.682Z,3.60
2022-12-05T00:58:24.361Z,3.87
2022-12-05T01:01:33.229Z,3.50
2022-12-05T01:04:38.476Z,4.33
2022-12-05T01:07:43.247Z,3.97
2022-12-05T01:10:55.167Z,4.47
2022-12-05T01:14:00.289Z,4.33
2022-12-05T01:17:06.687Z,3.83
2022-12-05T01:20:14.225Z,4.27
2022-12-05T01:23:18.978Z,3.90
2022-12-05T01:26:24.820Z,4.20
2022-12-05T01:29:29.845Z,4.03
2022-12-05T01:32:36.147Z,3.80
2022-12-05T01:35:42.484Z,4.37
2022-12-05T01:38:47.871Z,3.70
2022-12-05T01:41:53.264Z,3.90
2022-12-05T01:45:07.197Z,3.93
2022-12-05T01:48:19.619Z,4.00
2022-12-05T01:51:25.277Z,3.83
2022-12-05T01:54:31.154Z,4.20
2022-12-05T01:57:36.226Z,4.37
2022-12-05T02:00:41.660Z,3.70
2022-12-05T02:03:50.210Z,4.20
2022-12-05T02:06:55.126Z,4.37
2022-12-05T02:10:00.253Z,4.17
2022-12-05T02:13:16.834Z,4.40
2022-12-05T02:16:29.554Z,4.37
2022-12-05T02:20:00.931Z,4.57
2022-12-05T02:23:57.874Z,4.10
2022-12-05T02:27:31.540Z,4.07
2022-12-05T02:30:41.045Z,3.90
2022-12-05T02:33:50.018Z,3.90
2022-12-05T02:37:00.837Z,3.60
2022-12-05T02:40:12.364Z,4.40
2022-12-05T02:43:20.470Z,3.77
2022-12-05T02:46:30.438Z,3.47
2022-12-05T02:49:38.019Z,4.00
2022-12-05T02:52:43.919Z,3.80
2022-12-05T02:55:50.134Z,3.77
2022-12-05T02:58:56.670Z,3.73
2022-12-05T03:02:02.679Z,4.10
2022-12-05T03:05:18.722Z,3.37
2022-12-05T03:08:28.996Z,3.50
2022-12-05T03:11:39.657Z,3.73
2022-12-05T03:14:48.349Z,3.90
2022-12-05T03:17:58.713Z,3.60
2022-12-05T03:21:10.055Z,3.80
2022-12-05T03:24:16.485Z,3.53
2022-12-05T03:27:27.041Z,3.43
2022-12-05T03:30:32.767Z,3.60
2022-12-05T03:33:43.848Z,3.50
2022-12-05T03:36:51.948Z,4.30
2022-12-05T03:40:07.697Z,3.73
2022-12-05T03:43:26.753Z,3.63
2022-12-05T03:46:33.977Z,3.23
2022-12-05T03:49:44.506Z,3.73
2022-12-05T03:53:18.796Z,3.57
2022-12-05T03:56:24.466Z,3.67
2022-12-05T03:59:34.424Z,3.37
2022-12-05T04:02:45.636Z,3.40
2022-12-05T04:05:54.368Z,3.50
2022-12-05T04:09:02.241Z,4.00
2022-12-05T04:12:10.073Z,3.67
2022-12-05T04:15:23.058Z,3.43
2022-12-05T04:18:27.878Z,3.80
2022-12-05T04:21:40.180Z,3.50
2022-12-05T04:25:02.450Z,3.30
2022-12-05T04:28:25.568Z,3.50
2022-12-05T04:31:35.052Z,3.20
2022-12-05T04:34:40.490Z,3.33
2022-12-05T04:37:50.186Z,3.47
2022-12-05T04:40:59.496Z,3.50
2022-12-05T04:44:09.124Z,3.40
2022-12-05T04:47:15.383Z,3.20
2022-12-05T04:50:20.941Z,3.43
2022-12-05T04:53:30.348Z,3.60
2022-12-05T04:56:38.083Z,3.20
2022-12-05T04:59:42.865Z,3.23
2022-12-05T05:02:52.980Z,2.90
2022-12-05T05:05:58.773Z,3.37
2022-12-05T05:09:06.117Z,3.40
2022-12-05T05:12:18.747Z,3.27
2022-12-05T05:15:23.975Z,3.37
2022-12-05T05:18:28.755Z,3.30
2022-12-05T05:21:35.701Z,3.40
2022-12-05T05:24:41.890Z,3.13
2022-12-05T05:27:51.263Z,3.30
2022-12-05T05:30:55.914Z,3.40
2022-12-05T05:34:07.388Z,3.47
2022-12-05T05:37:14.579Z,2.97
2022-12-05T05:40:21.078Z,3.60
2022-12-05T05:43:25.738Z,3.13
2022-12-05T05:46:32.979Z,3.23
2022-12-05T05:49:38.096Z,3.00
2022-12-05T05:52:44.514Z,3.70
2022-12-05T05:55:50.561Z,3.67
2022-12-05T05:59:00.327Z,3.50
2022-12-05T06:02:05.175Z,3.13
2022-12-05T06:05:10.668Z,3.00
2022-12-05T06:08:15.740Z,3.20
2022-12-05T06:11:26.348Z,3.07
2022-12-05T06:14:31.680Z,3.20
2022-12-05T06:17:36.343Z,3.30
2022-12-05T06:20:41.085Z,3.40
2022-12-05T06:23:46.134Z,3.60
2022-12-05T06:26:52.228Z,3.63
2022-12-05T06:29:57.329Z,3.30
2022-12-05T06:33:02.168Z,3.30
2022-12-05T06:36:09.941Z,3.40
2022-12-05T06:39:14.661Z,3.33
2022-12-05T06:42:22.341Z,3.60
2022-12-05T06:45:27.265Z,3.80
2022-12-05T06:48:32.293Z,3.50
2022-12-05T06:51:38.032Z,3.77
2022-12-05T06:54:42.685Z,3.77
2022-12-05T06:57:48.704Z,4.50
2022-12-05T07:01:11.593Z,4.10
2022-12-05T07:04:20.297Z,3.70
2022-12-05T07:07:25.078Z,3.93
2022-12-05T07:10:29.883Z,4.07
2022-12-05T07:13:36.446Z,4.07
2022-12-05T07:16:41.219Z,4.10
2022-12-05T07:19:46.099Z,3.80
2022-12-05T07:22:50.884Z,4.20
2022-12-05T07:25:57.899Z,4.27
2022-12-05T07:29:04.008Z,4.20
2022-12-05T07:32:09.448Z,4.07
2022-12-05T07:35:14.285Z,3.60
2022-12-05T07:38:18.970Z,3.70
2022-12-05T07:41:25.275Z,3.90
2022-12-05T07:44:31.391Z,4.17
2022-12-05T07:47:36.109Z,3.60
2022-12-05T07:50:40.845Z,4.17
2022-12-05T07:53:46.142Z,3.90
2022-12-05T07:56:50.839Z,4.00
2022-12-05T07:59:57.184Z,3.67
2022-12-05T08:03:04.264Z,4.20
2022-12-05T08:06:11.389Z,3.63
2022-12-05T08:09:16.378Z,3.97
2022-12-05T08:12:21.074Z,4.27
2022-12-05T08:15:27.308Z,4.13
2022-12-05T08:18:32.362Z,3.83
2022-12-05T08:21:37.213Z,3.77
2022-12-05T08:24:41.982Z,3.83
2022-12-05T08:27:47.007Z,4.10
2022-12-05T08:30:53.135Z,3.90
2022-12-05T08:33:59.512Z,4.73
2022-12-05T08:37:04.627Z,4.47
2022-12-05T08:40:10.516Z,3.80
2022-12-05T08:43:15.338Z,3.30
2022-12-05T08:46:21.447Z,3.87
2022-12-05T08:49:26.390Z,3.90
2022-12-05T08:52:31.445Z,4.10
2022-12-05T08:55:36.347Z,3.70
2022-12-05T08:58:41.629Z,4.30
2022-12-05T09:01:48.055Z,4.60
2022-12-05T09:04:54.155Z,4.00
2022-12-05T09:07:59.920Z,4.17
2022-12-05T09:11:08.126Z,4.73
2022-12-05T09:14:16.274Z,4.17
2022-12-05T09:17:23.186Z,3.97
2022-12-05T09:20:27.978Z,4.10
2022-12-05T09:23:33.194Z,4.00
2022-12-05T09:26:38.252Z,3.90
2022-12-05T09:29:43.471Z,4.63
2022-12-05T09:32:49.613Z,4.57
2022-12-05T09:35:54.343Z,4.47
2022-12-05T09:39:03.037Z,4.07
2022-12-05T09:42:27.181Z,4.30
2022-12-05T09:45:38.228Z,3.90
2022-12-05T09:48:45.009Z,4.30
2022-12-05T09:51:55.080Z,4.13
2022-12-05T09:55:06.379Z,4.40
2022-12-05T09:58:43.266Z,4.23
2022-12-05T10:01:56.224Z,4.70
2022-12-05T10:05:05.906Z,3.70
2022-12-05T10:08:19.229Z,4.13
2022-12-05T10:11:29.048Z,3.87
2022-12-05T10:14:40.968Z,4.00
2022-12-05T10:17:50.479Z,3.17
2022-12-05T10:21:02.245Z,3.53
2022-12-05T10:24:14.823Z,3.80
2022-12-05T10:27:22.005Z,3.80
2022-12-05T10:30:30.442Z,3.63
2022-12-05T10:33:40.700Z,3.53
2022-12-05T10:36:56.245Z,3.80
2022-12-05T10:40:00.944Z,3.50
2022-12-05T10:43:08.216Z,3.83
2022-12-05T10:46:17.203Z,3.37
2022-12-05T10:49:22.756Z,3.90
2022-12-05T10:52:28.823Z,4.23
2022-12-05T10:55:37.921Z,4.00
2022-12-05T10:58:57.248Z,4.20
2022-12-05T11:02:02.933Z,4.13
2022-12-05T11:05:09.557Z,4.87
2022-12-05T11:08:48.191Z,4.83
2022-12-05T11:12:04.948Z,4.70
2022-12-05T11:15:25.518Z,4.73
2022-12-05T11:18:33.719Z,4.50
2022-12-05T11:21:44.110Z,3.80
2022-12-05T11:24:50.280Z,4.67
2022-12-05T11:27:59.743Z,4.30
2022-12-05T11:31:17.794Z,4.13
2022-12-05T11:34:25.921Z,4.33
2022-12-05T11:37:36.462Z,4.33
2022-12-05T11:40:51.901Z,4.90
2022-12-05T11:44:24.981Z,4.60
2022-12-05T11:47:46.357Z,4.33
2022-12-05T11:51:04.977Z,4.87
2022-12-05T11:55:04.924Z,5.00
2022-12-05T11:58:37.529Z,4.53
2022-12-05T12:01:51.149Z,4.30
2022-12-05T12:05:02.243Z,4.37
2022-12-05T12:08:17.127Z,3.87
2022-12-05T12:11:28.860Z,4.27
2022-12-05T12:14:47.261Z,4.53
2022-12-05T12:17:59.165Z,4.17
2022-12-05T12:21:18.530Z,4.00
2022-12-05T12:24:33.061Z,3.60
2022-12-05T12:27:47.418Z,4.07
2022-12-05T12:31:08.481Z,4.03
2022-12-05T12:34:35.623Z,3.53
2022-12-05T12:37:47.402Z,3.60
2022-12-05T12:40:55.482Z,3.77
2022-12-05T12:44:08.783Z,3.70
2022-12-05T12:47:19.900Z,3.93
2022-12-05T12:50:26.803Z,3.87
2022-12-05T12:53:57.336Z,4.10
2022-12-05T12:57:15.271Z,4.20
2022-12-05T13:00:28.333Z,3.97
2022-12-05T13:03:40.939Z,4.20
2022-12-05T13:06:49.804Z,3.93
2022-12-05T13:09:58.995Z,3.90
2022-12-05T13:13:05.405Z,4.43
2022-12-05T13:16:18.425Z,4.23
2022-12-05T13:19:30.538Z,3.63
2022-12-05T13:22:35.414Z,3.70
2022-12-05T13:25:41.771Z,3.87
2022-12-05T13:28:52.669Z,3.47
2022-12-05T13:31:57.547Z,3.70
2022-12-05T13:35:11.105Z,4.00
2022-12-05T13:38:41.993Z,4.20
2022-12-05T13:42:06.440Z,4.20
2022-12-05T13:45:18.157Z,3.90
2022-12-05T13:48:25.555Z,3.63
2022-12-05T13:51:35.274Z,3.73
2022-12-05T13:54:45.638Z,3.90
2022-12-05T13:57:55.145Z,4.00
2022-12-05T14:01:51.937Z,4.07
2022-12-05T14:05:00.265Z,4.17
2022-12-05T14:08:58.806Z,4.33
2022-12-05T14:12:31.898Z,4.20
2022-12-05T14:15:42.683Z,3.70
2022-12-05T14:18:50.999Z,3.23
2022-12-05T14:22:02.824Z,3.60
2022-12-05T14:25:21.022Z,3.50
2022-12-05T14:28:39.137Z,3.33
2022-12-05T14:31:52.892Z,3.00
2022-12-05T14:35:00.115Z,3.50
2022-12-05T14:38:06.845Z,3.30
2022-12-05T14:41:23.302Z,3.40
2022-12-05T14:44:32.176Z,3.20
2022-12-05T14:47:37.213Z,3.40
2022-12-05T14:50:45.225Z,3.20
2022-12-05T14:53:50.613Z,3.60
2022-12-05T14:57:08.548Z,4.10
2022-12-05T15:00:21.239Z,4.07
2022-12-05T15:03:31.304Z,3.70
2022-12-05T15:06:43.630Z,3.47
2022-12-05T15:09:57.888Z,3.40
2022-12-05T15:13:09.360Z,3.60
2022-12-05T15:16:17.999Z,3.37
2022-12-05T15:19:29.990Z,4.00
2022-12-05T15:22:36.634Z,3.67
2022-12-05T15:25:41.533Z,3.10
2022-12-05T15:29:05.500Z,3.23
2022-12-05T15:32:20.173Z,2.90
2022-12-05T15:35:27.481Z,3.30
2022-12-05T15:38:35.026Z,3.27
2022-12-05T15:41:39.954Z,3.13
2022-12-05T15:44:46.144Z,3.03
2022-12-05T15:47:52.602Z,3.20
2022-12-05T15:50:57.543Z,3.30
2022-12-05T15:54:06.272Z,3.00
2022-12-05T15:57:16.409Z,3.30
2022-12-05T16:00:26.035Z,3.40
2022-12-05T16:03:39.467Z,3.20
2022-12-05T16:06:45.668Z,3.10
2022-12-05T16:09:52.017Z,3.40
2022-12-05T16:12:56.880Z,2.90
2022-12-05T16:16:03.337Z,3.37
2022-12-05T16:19:15.646Z,3.23
2022-12-05T16:22:24.154Z,2.60
2022-12-05T16:25:30.844Z,3.10
2022-12-05T16:28:35.994Z,2.67
2022-12-05T16:31:43.001Z,3.27
2022-12-05T16:34:48.029Z,3.20
2022-12-05T16:37:52.986Z,3.27
2022-12-05T16:40:59.680Z,3.23
2022-12-05T16:44:13.050Z,3.70
2022-12-05T16:47:25.569Z,3.40
2022-12-05T16:50:32.824Z,3.47
2022-12-05T16:53:37.736Z,3.23
2022-12-05T16:56:43.431Z,3.50
2022-12-05T16:59:49.864Z,3.37
2022-12-05T17:03:18.517Z,3.73
2022-12-05T17:06:21.339Z,3.53
2022-12-05T17:09:26.148Z,3.83
2022-12-05T17:12:31.152Z,3.53
2022-12-05T17:15:36.176Z,3.70
2022-12-05T17:18:42.605Z,3.40
2022-12-05T17:21:47.594Z,3.93
2022-12-05T17:24:52.442Z,3.33
2022-12-05T17:27:57.298Z,3.60
2022-12-05T17:31:02.318Z,4.00
2022-12-05T17:34:17.014Z,3.80
2022-12-05T17:37:21.965Z,3.57
2022-12-05T17:40:26.936Z,4.27
2022-12-05T17:43:31.826Z,4.57
2022-12-05T17:46:36.712Z,4.90
2022-12-05T17:49:43.069Z,4.70
2022-12-05T17:52:48.011Z,4.27
2022-12-05T17:55:53.040Z,4.77
2022-12-05T17:58:59.780Z,4.80
2022-12-05T18:02:05.562Z,4.67
2022-12-05T18:05:13.733Z,4.73
2022-12-05T18:08:19.115Z,4.43
2022-12-05T18:11:23.960Z,4.37
2022-12-05T18:14:28.896Z,5.13
2022-12-05T18:17:34.080Z,5.67
2022-12-05T18:20:40.344Z,5.30
2022-12-05T18:23:45.377Z,5.67
2022-12-05T18:26:50.150Z,4.67
2022-12-05T18:29:55.136Z,4.60
2022-12-05T18:33:00.069Z,4.73
2022-12-05T18:36:11.488Z,4.57
2022-12-05T18:39:16.536Z,4.20
2022-12-05T18:42:21.393Z,4.53
2022-12-05T18:45:26.946Z,4.50
2022-12-05T18:48:39.461Z,5.07
2022-12-05T18:51:47.476Z,4.97
2022-12-05T18:55:09.169Z,4.73
2022-12-05T18:58:17.342Z,4.60
2022-12-05T19:01:22.295Z,4.17
2022-12-05T19:04:27.632Z,4.63
2022-12-05T19:07:33.879Z,4.47
2022-12-05T19:10:38.850Z,4.30
2022-12-05T19:13:43.678Z,4.93
2022-12-05T19:16:54.936Z,4.90
2022-12-05T19:20:03.184Z,4.27
2022-12-05T19:23:09.604Z,4.37
2022-12-05T19:26:14.493Z,4.50
2022-12-05T19:29:19.480Z,4.27
2022-12-05T19:32:24.260Z,4.07
2022-12-05T19:35:29.456Z,4.30
2022-12-05T19:38:36.909Z,4.80
2022-12-05T19:41:41.867Z,4.53
2022-12-05T19:44:46.709Z,4.57
2022-12-05T19:47:51.553Z,4.17
2022-12-05T19:50:57.550Z,4.00
2022-12-05T19:54:05.735Z,4.10
2022-12-05T19:57:11.341Z,3.90
2022-12-05T20:00:19.830Z,3.60
2022-12-05T20:03:24.813Z,3.80
2022-12-05T20:06:32.858Z,3.40
2022-12-05T20:09:39.341Z,3.23
2022-12-05T20:12:44.188Z,3.10
2022-12-05T20:15:49.367Z,3.60
2022-12-05T20:18:55.381Z,3.30
2022-12-05T20:22:00.269Z,3.83
2022-12-05T20:25:07.101Z,3.97
2022-12-05T20:28:15.605Z,3.80
2022-12-05T20:31:22.364Z,4.47
2022-12-05T20:34:27.273Z,4.23
2022-12-05T20:37:35.369Z,4.33
2022-12-05T20:40:42.127Z,4.43
2022-12-05T20:43:53.064Z,4.70
2022-12-05T20:46:58.020Z,4.57
2022-12-05T20:50:02.860Z,4.47
2022-12-05T20:53:07.884Z,4.93
2022-12-05T20:56:17.074Z,5.03
2022-12-05T20:59:22.010Z,5.50
2022-12-05T21:02:26.957Z,4.80
2022-12-05T21:05:32.146Z,4.47
2022-12-05T21:08:36.964Z,4.60
2022-12-05T21:11:43.746Z,5.00
2022-12-05T21:14:48.566Z,4.70
2022-12-05T21:17:53.418Z,4.83
2022-12-05T21:20:59.046Z,4.50
2022-12-05T21:24:05.904Z,4.80
2022-12-05T21:27:12.102Z,4.47
2022-12-05T21:30:17.392Z,4.60
2022-12-05T21:33:27.249Z,4.60
2022-12-05T21:36:35.030Z,4.03
2022-12-05T21:39:40.064Z,3.87
2022-12-05T21:42:46.299Z,4.17
2022-12-05T21:45:53.734Z,3.80
2022-12-05T21:48:58.749Z,3.83
2022-12-05T21:52:03.620Z,3.30
2022-12-05T21:55:09.899Z,3.50
2022-12-05T21:58:16.445Z,3.30
2022-12-05T22:01:22.833Z,3.00
2022-12-05T22:04:27.713Z,2.93
2022-12-05T22:07:33.162Z,3.27
2022-12-05T22:10:38.073Z,3.53
2022-12-05T22:13:44.402Z,3.57
2022-12-05T22:16:49.398Z,3.97
2022-12-05T22:19:54.507Z,3.40
2022-12-05T22:22:59.315Z,3.50
2022-12-05T22:26:05.846Z,3.23
2022-12-05T22:29:13.061Z,3.43
2022-12-05T22:32:18.080Z,3.03
2022-12-05T22:35:22.869Z,3.20
2022-12-05T22:38:29.660Z,3.47
2022-12-05T22:41:34.512Z,3.60
2022-12-05T22:44:40.758Z,3.50
2022-12-05T22:47:45.553Z,3.60
2022-12-05T22:50:51.857Z,3.13
2022-12-05T22:53:56.916Z,3.97
2022-12-05T22:57:01.833Z,3.70
2022-12-05T23:00:10.126Z,3.80
2022-12-05T23:03:16.446Z,3.70
2022-12-05T23:06:21.488Z,3.43
2022-12-05T23:09:27.039Z,3.70
2022-12-05T23:12:32.008Z,3.40
2022-12-05T23:15:38.934Z,3.93
2022-12-05T23:18:50.370Z,2.93
2022-12-05T23:21:55.359Z,3.40
2022-12-05T23:25:00.264Z,3.10
2022-12-05T23:28:05.337Z,2.97
2022-12-05T23:31:13.284Z,3.43
2022-12-05T23:34:18.781Z,3.00
2022-12-05T23:37:23.691Z,3.07
2022-12-05T23:40:28.659Z,2.87
2022-12-05T23:43:34.918Z,2.93
2022-12-05T23:46:41.384Z,2.80
2022-12-05T23:49:47.625Z,2.50
2022-12-05T23:52:52.898Z,2.50
2022-12-05T23:56:02.329Z,2.37
2022-12-05T23:59:09.676Z,2.10
